YFA weather

Fort Albany Airport
Fort Albany, Ontario, Canada

Public forecast

Using degrees Celsius for public forecast. Weather courtesy of forecast.io.

Closest aviation weather report (METAR) to Fort Albany Airport

Closest report is Attawapiskat Airport, 51.2 nm (94.8 km) NNW. Retrieved 2020/06/02 08:00 UTC (40 minutes ago):

CYAT 020800Z AUTO 07006KT 9SM OVC065 03/M01 A2993 RMK SLP137

Closest aviation forecast (TAF) to Fort Albany Airport

Closest forecast is Attawapiskat Airport, 51.2 nm (94.8 km) NNW. Retrieved 2020/06/02 09:00 UTC (0 seconds ago):

TAF CYAT 020830Z 0209/0219 08008KT P6SM SCT040 OVC070 RMK FCST BASED ON AUTO OBS NXT FCST BY 021500Z